메인 페이지
METAR-TAF:

METAR-TAF

공항 :

자이푸르, 인도

위도: 26-49N, 경도: 075-48E, 고도: 385m

현재 날씨관측

예보는 11분 전, 02:00시(UTC)에 발표되었습니다.
무풍
온도 10°C
습도 82%
기압 1013 hPa
시정: 2000m
박무

METAR: VIJP 160200Z 00000KT 2000 BR NSC 10/07 Q1013 NOSIG

시각: 07:41 (02:11 UTC)

예보

예보는 3 시간 11분 전, 23:00시(UTC)에 발표되었습니다.
예보 대상 시간: 16일 00시부터 17일 06시까지 (UTC)
kt
시정: 2000m
고도 10000ft 상공 구름 보통
연무
전환 중
16일 01시부터 16일 03시까지 (UTC)
여러 방향의 바람 2kt
시정: 1500m
연무, 연기
전환 중
16일 05시부터 16일 07시까지 (UTC)
여러 방향의 바람 3kt
시정: 3000m
고도 3000ft 상공 구름 조금
고도 10000ft 상공 구름 보통
연무
전환 중
16일 12시부터 16일 14시까지 (UTC)
여러 방향의 바람 2kt
시정: 2000m
연무
전환 중
17일 01시부터 17일 03시까지 (UTC)
여러 방향의 바람 2kt
시정: 1500m
고도 10000ft 상공 구름 보통
연무, 연기
전환 중
17일 04시부터 17일 06시까지 (UTC)
여러 방향의 바람 3kt
시정: 3000m
연무

TAF: VIJP 152300Z 1600/1706 00000KT 2000 HZ SCT100 BECMG 1601/1603 VRB02KT 1500 HZ FU BECMG 1605/1607 VRB03KT 3000 HZ FEW030 SCT100 BECMG 1612/1614 VRB02KT 2000 HZ BECMG 1701/1703 VRB02KT 1500 HZ FU SCT100 BECMG 1704/1706 VRB03KT 3000 HZ

4,000개 이상의 공항 관측 자료 및 예보 (METAR 및 TAF 보고).

지도상에서 검색 가능한 기상관측소가 노란 점과 빨간 점으로 표시되어 있습니다.

기상관측소 명을 보려면 표시 위로 마우스를 이동하세요.

날씨 관측과 예보를 보려면 클릭하세요.

지도 변경 : 확대하려면 엑스 표시가 있는 녹색 버튼, 축소하려면 빼기 표시가 있는 녹색 버튼, 다음 페이지의 지도를 보려면 녹색 화살표를 클릭하세요.


METAR-TAF: